Silver Hill, Maryland
Current Conditions -  °F | °C
As of 5:55 PM on Friday 19 Dec 2014 (Local Time) from KADW Reporting Station
Clear Clear  
Wind Chill: 28°   Ceiling: Unl
Heat Index: 36°   Visibility: 10mi
Dew Point: 22°   Wind: 12mph
Humidity: 57%   Direction: 320°NW
Pressure: 30.17"   Gusts: NA
Location:  38.8377°N, 76.9193°W
Report Text: KADW 192255Z 32010KT 10SM CLR 02/M05 A3017 RMK AO2A SLP220 T00241053
Loading
Personal Weather Stations






























Interactive Weather Map New forecast layout! Learn more

10-Day Weather Forecast

Advertisements
Track Severe Weather on mobile